Terminal Aerodrome Forecast
Issued by NWS

Home | Current Version | Previous Version | Text Only | Print | Product List | Glossary Off
Versions: 1 2 3 4 5 6 7 8 9 10 11 12 13 14

017
FTUS43 KICT 221730 AAB
TAFHUT
TAF AMD
KHUT 221730Z 2218/2318 18016G22KT P6SM FEW250
     FM230100 17009KT P6SM FEW250
     FM230500 35009KT P6SM VCSH BKN150
     FM230800 01013KT P6SM VCSH BKN100
     FM231200 02013KT P6SM BKN080
     FM231700 01015KT P6SM SCT150=

USA.gov is the U.S. government's official web portal to all federal, state and local government web resources and services.